sensor_id;sensor_type;location;lat;lon;timestamp;pressure;altitude;pressure_sealevel;temperature;humidity
26635;BME280;14490;54.208;37.686;2023-08-06T00:01:30;99390.50;;;23.99;100.00
26635;BME280;14490;54.208;37.686;2023-08-06T00:03:57;99393.50;;;23.97;100.00
26635;BME280;14490;54.208;37.686;2023-08-06T00:06:26;99395.63;;;23.95;100.00
26635;BME280;14490;54.208;37.686;2023-08-06T00:08:53;99398.56;;;23.93;100.00
26635;BME280;14490;54.208;37.686;2023-08-06T00:11:21;99397.53;;;23.88;100.00
26635;BME280;14490;54.208;37.686;2023-08-06T00:13:48;99396.06;;;23.85;100.00
26635;BME280;14490;54.208;37.686;2023-08-06T00:16:16;99396.06;;;23.85;100.00
26635;BME280;14490;54.208;37.686;2023-08-06T00:18:44;99399.84;;;23.84;100.00
26635;BME280;14490;54.208;37.686;2023-08-06T00:21:11;99398.16;;;23.83;100.00
26635;BME280;14490;54.208;37.686;2023-08-06T00:23:39;99405.78;;;23.81;100.00
26635;BME280;14490;54.208;37.686;2023-08-06T00:26:06;99400.69;;;23.78;100.00
26635;BME280;14490;54.208;37.686;2023-08-06T00:28:33;99408.31;;;23.76;100.00
26635;BME280;14490;54.208;37.686;2023-08-06T00:31:01;99389.28;;;23.68;100.00
26635;BME280;14490;54.208;37.686;2023-08-06T00:33:28;99402.41;;;23.73;100.00
26635;BME280;14490;54.208;37.686;2023-08-06T00:35:56;99396.47;;;23.69;100.00
26635;BME280;14490;54.208;37.686;2023-08-06T00:38:24;99389.28;;;23.68;100.00
26635;BME280;14490;54.208;37.686;2023-08-06T00:40:51;99397.31;;;23.63;100.00
26635;BME280;14490;54.208;37.686;2023-08-06T00:43:18;99383.81;;;23.55;100.00
26635;BME280;14490;54.208;37.686;2023-08-06T00:45:46;99393.94;;;23.61;100.00
26635;BME280;14490;54.208;37.686;2023-08-06T00:48:13;99398.78;;;23.59;100.00
26635;BME280;14490;54.208;37.686;2023-08-06T00:50:41;99399.22;;;23.56;100.00
26635;BME280;14490;54.208;37.686;2023-08-06T00:53:09;99384.84;;;23.48;100.00
26635;BME280;14490;54.208;37.686;2023-08-06T00:55:37;99379.34;;;23.41;100.00
26635;BME280;14490;54.208;37.686;2023-08-06T00:58:04;99397.31;;;23.50;100.00
26635;BME280;14490;54.208;37.686;2023-08-06T01:00:32;99397.09;;;23.45;100.00
26635;BME280;14490;54.208;37.686;2023-08-06T01:02:59;99404.31;;;23.46;100.00
26635;BME280;14490;54.208;37.686;2023-08-06T01:05:27;99400.06;;;23.44;100.00
26635;BME280;14490;54.208;37.686;2023-08-06T01:08:07;99403.44;;;23.39;100.00
26635;BME280;14490;54.208;37.686;2023-08-06T01:10:50;99400.28;;;23.42;100.00
26635;BME280;14490;54.208;37.686;2023-08-06T01:13:35;99393.06;;;23.34;100.00
26635;BME280;14490;54.208;37.686;2023-08-06T01:16:09;99382.91;;;23.22;100.00
26635;BME280;14490;54.208;37.686;2023-08-06T01:18:37;99410.34;;;23.35;100.00
26635;BME280;14490;54.208;37.686;2023-08-06T01:21:08;99412.47;;;23.33;100.00
26635;BME280;14490;54.208;37.686;2023-08-06T01:23:35;99389.22;;;23.16;100.00
26635;BME280;14490;54.208;37.686;2023-08-06T01:26:10;99411.19;;;23.29;100.00
26635;BME280;14490;54.208;37.686;2023-08-06T01:28:45;99386.25;;;23.11;100.00
26635;BME280;14490;54.208;37.686;2023-08-06T01:31:21;99405.50;;;23.24;100.00
26635;BME280;14490;54.208;37.686;2023-08-06T01:33:53;99416.66;;;23.22;100.00
26635;BME280;14490;54.208;37.686;2023-08-06T01:36:23;99420.50;;;23.21;100.00
26635;BME280;14490;54.208;37.686;2023-08-06T01:38:51;99407.78;;;23.14;100.00
26635;BME280;14490;54.208;37.686;2023-08-06T01:41:19;99428.91;;;23.20;100.00
26635;BME280;14490;54.208;37.686;2023-08-06T01:43:46;99427.25;;;23.19;100.00
26635;BME280;14490;54.208;37.686;2023-08-06T01:46:14;99435.50;;;23.19;100.00
26635;BME280;14490;54.208;37.686;2023-08-06T01:48:41;99427.22;;;23.12;100.00
26635;BME280;14490;54.208;37.686;2023-08-06T01:51:08;99440.31;;;23.17;100.00
26635;BME280;14490;54.208;37.686;2023-08-06T01:53:37;99444.13;;;23.16;100.00
26635;BME280;14490;54.208;37.686;2023-08-06T01:56:04;99445.81;;;23.17;100.00
26635;BME280;14490;54.208;37.686;2023-08-06T01:58:32;99450.44;;;23.16;100.00
26635;BME280;14490;54.208;37.686;2023-08-06T02:00:59;99447.94;;;23.15;100.00
26635;BME280;14490;54.208;37.686;2023-08-06T02:03:27;99442.22;;;23.16;100.00
26635;BME280;14490;54.208;37.686;2023-08-06T02:05:55;99441.16;;;23.17;100.00
26635;BME280;14490;54.208;37.686;2023-08-06T02:08:22;99438.22;;;23.19;100.00
26635;BME280;14490;54.208;37.686;2023-08-06T02:10:51;99440.97;;;23.19;100.00
26635;BME280;14490;54.208;37.686;2023-08-06T02:13:19;99441.59;;;23.21;100.00
26635;BME280;14490;54.208;37.686;2023-08-06T02:15:46;99447.09;;;23.21;100.00
26635;BME280;14490;54.208;37.686;2023-08-06T02:18:14;99453.44;;;23.21;100.00
26635;BME280;14490;54.208;37.686;2023-08-06T02:20:41;99450.47;;;23.23;100.00
26635;BME280;14490;54.208;37.686;2023-08-06T02:23:09;99440.31;;;23.17;100.00
26635;BME280;14490;54.208;37.686;2023-08-06T02:25:36;99444.56;;;23.26;100.00
26635;BME280;14490;54.208;37.686;2023-08-06T02:28:05;99446.72;;;23.30;100.00
26635;BME280;14490;54.208;37.686;2023-08-06T02:30:32;99444.59;;;23.32;100.00
26635;BME280;14490;54.208;37.686;2023-08-06T02:32:59;99439.75;;;23.34;100.00
26635;BME280;14490;54.208;37.686;2023-08-06T02:35:27;99445.03;;;23.36;100.00
26635;BME280;14490;54.208;37.686;2023-08-06T02:37:54;99445.03;;;23.36;100.00
26635;BME280;14490;54.208;37.686;2023-08-06T02:40:21;99450.75;;;23.41;100.00
26635;BME280;14490;54.208;37.686;2023-08-06T02:42:48;99444.66;;;23.46;100.00
26635;BME280;14490;54.208;37.686;2023-08-06T02:45:17;99455.00;;;23.50;100.00
26635;BME280;14490;54.208;37.686;2023-08-06T02:47:44;99446.56;;;23.52;100.00
26635;BME280;14490;54.208;37.686;2023-08-06T02:50:11;99454.81;;;23.58;100.00
26635;BME280;14490;54.208;37.686;2023-08-06T02:52:38;99459.47;;;23.64;100.00
26635;BME280;14490;54.208;37.686;2023-08-06T02:55:06;99449.97;;;23.67;100.00
26635;BME280;14490;54.208;37.686;2023-08-06T02:57:34;99452.28;;;23.70;100.00
26635;BME280;14490;54.208;37.686;2023-08-06T03:00:01;99444.66;;;23.72;100.00
26635;BME280;14490;54.208;37.686;2023-08-06T03:02:31;99440.44;;;23.69;100.00
26635;BME280;14490;54.208;37.686;2023-08-06T03:04:58;99445.09;;;23.75;100.00
26635;BME280;14490;54.208;37.686;2023-08-06T03:07:25;99443.41;;;23.74;100.00
26635;BME280;14490;54.208;37.686;2023-08-06T03:09:52;99447.41;;;23.78;100.00
26635;BME280;14490;54.208;37.686;2023-08-06T03:12:20;99435.16;;;23.74;100.00
26635;BME280;14490;54.208;37.686;2023-08-06T03:14:47;99447.63;;;23.83;100.00
26635;BME280;14490;54.208;37.686;2023-08-06T03:17:14;99452.06;;;23.84;100.00
26635;BME280;14490;54.208;37.686;2023-08-06T03:19:43;99448.06;;;23.87;100.00
26635;BME280;14490;54.208;37.686;2023-08-06T03:22:10;99444.03;;;23.89;100.00
26635;BME280;14490;54.208;37.686;2023-08-06T03:24:37;99438.94;;;23.86;100.00
26635;BME280;14490;54.208;37.686;2023-08-06T03:27:05;99441.28;;;23.89;100.00
26635;BME280;14490;54.208;37.686;2023-08-06T03:29:33;99457.16;;;24.01;100.00
26635;BME280;14490;54.208;37.686;2023-08-06T03:32:00;99453.31;;;24.02;100.00
26635;BME280;14490;54.208;37.686;2023-08-06T03:34:27;99450.16;;;24.05;100.00
26635;BME280;14490;54.208;37.686;2023-08-06T03:36:56;99449.09;;;24.06;100.00
26635;BME280;14490;54.208;37.686;2023-08-06T03:39:23;99444.66;;;24.05;100.00
26635;BME280;14490;54.208;37.686;2023-08-06T03:41:51;99446.97;;;24.08;100.00
26635;BME280;14490;54.208;37.686;2023-08-06T03:44:18;99442.13;;;24.10;100.00
26635;BME280;14490;54.208;37.686;2023-08-06T03:46:45;99448.91;;;24.14;100.00
26635;BME280;14490;54.208;37.686;2023-08-06T03:49:12;99444.06;;;24.16;100.00
26635;BME280;14490;54.208;37.686;2023-08-06T03:51:39;99430.94;;;24.11;100.00
26635;BME280;14490;54.208;37.686;2023-08-06T03:54:08;99444.66;;;24.24;100.00
26635;BME280;14490;54.208;37.686;2023-08-06T03:56:35;99453.53;;;24.26;100.00
26635;BME280;14490;54.208;37.686;2023-08-06T03:59:03;99455.66;;;24.31;100.00
26635;BME280;14490;54.208;37.686;2023-08-06T04:01:30;99453.09;;;24.36;100.00
26635;BME280;14490;54.208;37.686;2023-08-06T04:03:57;99452.25;;;24.42;100.00
26635;BME280;14490;54.208;37.686;2023-08-06T04:06:24;99446.72;;;24.48;100.00
26635;BME280;14490;54.208;37.686;2023-08-06T04:08:51;99445.44;;;24.51;100.00
26635;BME280;14490;54.208;37.686;2023-08-06T04:11:20;99440.97;;;24.57;100.00
26635;BME280;14490;54.208;37.686;2023-08-06T04:13:47;99441.97;;;24.75;100.00
26635;BME280;14490;54.208;37.686;2023-08-06T04:16:15;99428.44;;;24.80;100.00
26635;BME280;14490;54.208;37.686;2023-08-06T04:18:42;99430.97;;;24.88;100.00
26635;BME280;14490;54.208;37.686;2023-08-06T04:21:11;99401.09;;;24.79;100.00
26635;BME280;14490;54.208;37.686;2023-08-06T04:23:38;99441.03;;;25.08;100.00
26635;BME280;14490;54.208;37.686;2023-08-06T04:26:05;99438.91;;;25.10;100.00
26635;BME280;14490;54.208;37.686;2023-08-06T04:28:34;99431.91;;;25.14;100.00
26635;BME280;14490;54.208;37.686;2023-08-06T04:31:01;99434.22;;;25.17;100.00
26635;BME280;14490;54.208;37.686;2023-08-06T04:33:28;99437.13;;;25.22;100.00
26635;BME280;14490;54.208;37.686;2023-08-06T04:35:56;99431.63;;;25.22;100.00
26635;BME280;14490;54.208;37.686;2023-08-06T04:38:23;99433.06;;;25.31;100.00
26635;BME280;14490;54.208;37.686;2023-08-06T04:40:51;99429.84;;;25.34;100.00
26635;BME280;14490;54.208;37.686;2023-08-06T04:43:19;99417.13;;;25.33;100.00
26635;BME280;14490;54.208;37.686;2023-08-06T04:45:48;99438.69;;;25.49;100.00
26635;BME280;14490;54.208;37.686;2023-08-06T04:48:15;99409.88;;;25.38;100.00
26635;BME280;14490;54.208;37.686;2023-08-06T04:50:46;99444.13;;;25.62;100.00
26635;BME280;14490;54.208;37.686;2023-08-06T04:53:15;99439.81;;;25.66;100.00
26635;BME280;14490;54.208;37.686;2023-08-06T04:55:42;99433.91;;;25.63;100.00
26635;BME280;14490;54.208;37.686;2023-08-06T04:58:13;99440.03;;;25.71;100.00
26635;BME280;14490;54.208;37.686;2023-08-06T05:00:40;99429.59;;;25.73;100.00
26635;BME280;14490;54.208;37.686;2023-08-06T05:03:09;99442.25;;;25.81;100.00
26635;BME280;14490;54.208;37.686;2023-08-06T05:05:36;99444.34;;;25.85;100.00
26635;BME280;14490;54.208;37.686;2023-08-06T05:08:03;99429.66;;;25.91;100.00
26635;BME280;14490;54.208;37.686;2023-08-06T05:10:31;99433.22;;;25.98;100.00
26635;BME280;14490;54.208;37.686;2023-08-06T05:12:58;99426.78;;;26.04;100.00
26635;BME280;14490;54.208;37.686;2023-08-06T05:15:26;99419.13;;;26.06;100.00
26635;BME280;14490;54.208;37.686;2023-08-06T05:17:53;99421.56;;;26.15;100.00
26635;BME280;14490;54.208;37.686;2023-08-06T05:20:22;99419.03;;;26.20;100.00
26635;BME280;14490;54.208;37.686;2023-08-06T05:22:49;99423.41;;;26.27;100.00
26635;BME280;14490;54.208;37.686;2023-08-06T05:25:16;99415.50;;;26.31;100.00
26635;BME280;14490;54.208;37.686;2023-08-06T05:27:44;99396.25;;;26.24;100.00
26635;BME280;14490;54.208;37.686;2023-08-06T05:30:11;99419.97;;;26.50;100.00
26635;BME280;14490;54.208;37.686;2023-08-06T05:32:38;99416.06;;;26.57;100.00
26635;BME280;14490;54.208;37.686;2023-08-06T05:35:06;99402.03;;;26.59;100.00
26635;BME280;14490;54.208;37.686;2023-08-06T05:37:35;99416.50;;;26.73;100.00
26635;BME280;14490;54.208;37.686;2023-08-06T05:40:03;99419.81;;;26.81;100.00
26635;BME280;14490;54.208;37.686;2023-08-06T05:42:30;99422.03;;;26.91;100.00
26635;BME280;14490;54.208;37.686;2023-08-06T05:44:58;99394.50;;;26.84;100.00
26635;BME280;14490;54.208;37.686;2023-08-06T05:47:25;99404.31;;;26.98;100.00
26635;BME280;14490;54.208;37.686;2023-08-06T05:49:53;99405.69;;;27.07;100.00
26635;BME280;14490;54.208;37.686;2023-08-06T05:52:21;99418.22;;;27.22;100.00
26635;BME280;14490;54.208;37.686;2023-08-06T05:54:49;99416.81;;;27.31;100.00
26635;BME280;14490;54.208;37.686;2023-08-06T05:57:17;99409.50;;;27.36;100.00
26635;BME280;14490;54.208;37.686;2023-08-06T05:59:44;99415.34;;;27.46;100.00
26635;BME280;14490;54.208;37.686;2023-08-06T06:02:11;99416.09;;;27.53;100.00
26635;BME280;14490;54.208;37.686;2023-08-06T06:04:40;99407.31;;;27.56;100.00
26635;BME280;14490;54.208;37.686;2023-08-06T06:07:07;99415.38;;;27.69;100.00
26635;BME280;14490;54.208;37.686;2023-08-06T06:09:35;99414.44;;;27.76;100.00
26635;BME280;14490;54.208;37.686;2023-08-06T06:12:04;99401.59;;;27.81;100.00
26635;BME280;14490;54.208;37.686;2023-08-06T06:14:32;99398.47;;;27.89;100.00
26635;BME280;14490;54.208;37.686;2023-08-06T06:16:59;99399.44;;;27.95;100.00
26635;BME280;14490;54.208;37.686;2023-08-06T06:19:27;99404.41;;;28.04;100.00
26635;BME280;14490;54.208;37.686;2023-08-06T06:21:54;99404.03;;;28.12;100.00
26635;BME280;14490;54.208;37.686;2023-08-06T06:24:23;99396.69;;;28.18;100.00
26635;BME280;14490;54.208;37.686;2023-08-06T06:26:50;99399.94;;;28.27;100.00
26635;BME280;14490;54.208;37.686;2023-08-06T06:29:19;99404.53;;;28.33;100.00
26635;BME280;14490;54.208;37.686;2023-08-06T06:31:46;99396.91;;;28.40;100.00
26635;BME280;14490;54.208;37.686;2023-08-06T06:34:13;99398.72;;;28.46;100.00
26635;BME280;14490;54.208;37.686;2023-08-06T06:36:40;99405.56;;;28.55;100.00
26635;BME280;14490;54.208;37.686;2023-08-06T06:39:08;99400.16;;;28.60;100.00
26635;BME280;14490;54.208;37.686;2023-08-06T06:41:35;99399.56;;;28.69;100.00
26635;BME280;14490;54.208;37.686;2023-08-06T06:44:02;99384.88;;;28.69;100.00
26635;BME280;14490;54.208;37.686;2023-08-06T06:46:31;99394.56;;;28.83;100.00
26635;BME280;14490;54.208;37.686;2023-08-06T06:48:59;99384.06;;;28.85;100.00
26635;BME280;14490;54.208;37.686;2023-08-06T06:51:26;99400.91;;;28.95;100.00
26635;BME280;14490;54.208;37.686;2023-08-06T06:53:53;99394.88;;;28.98;100.00
26635;BME280;14490;54.208;37.686;2023-08-06T06:56:20;99390.28;;;29.04;100.00
26635;BME280;14490;54.208;37.686;2023-08-06T06:58:47;99404.56;;;29.12;100.00
26635;BME280;14490;54.208;37.686;2023-08-06T07:01:15;99390.81;;;29.17;100.00
26635;BME280;14490;54.208;37.686;2023-08-06T07:03:46;99387.09;;;29.23;100.00
26635;BME280;14490;54.208;37.686;2023-08-06T07:06:13;99387.19;;;29.28;100.00
26635;BME280;14490;54.208;37.686;2023-08-06T07:08:41;99392.00;;;29.33;100.00
26635;BME280;14490;54.208;37.686;2023-08-06T07:11:08;99392.06;;;29.38;100.00
26635;BME280;14490;54.208;37.686;2023-08-06T07:13:35;99379.06;;;29.39;100.00
26635;BME280;14490;54.208;37.686;2023-08-06T07:16:06;99381.50;;;29.52;100.00
26635;BME280;14490;54.208;37.686;2023-08-06T07:18:33;99388.56;;;29.59;100.00
26635;BME280;14490;54.208;37.686;2023-08-06T07:21:03;99379.81;;;29.67;100.00
26635;BME280;14490;54.208;37.686;2023-08-06T07:23:31;99387.97;;;29.74;100.00
26635;BME280;14490;54.208;37.686;2023-08-06T07:25:58;99372.47;;;29.73;100.00
26635;BME280;14490;54.208;37.686;2023-08-06T07:28:25;99385.44;;;29.84;100.00
26635;BME280;14490;54.208;37.686;2023-08-06T07:30:53;99373.47;;;29.84;100.00
26635;BME280;14490;54.208;37.686;2023-08-06T07:33:20;99382.56;;;29.96;100.00
26635;BME280;14490;54.208;37.686;2023-08-06T07:35:49;99370.59;;;29.95;100.00
26635;BME280;14490;54.208;37.686;2023-08-06T07:38:18;99373.72;;;29.99;100.00
26635;BME280;14490;54.208;37.686;2023-08-06T07:40:46;99374.97;;;30.08;100.00
26635;BME280;14490;54.208;37.686;2023-08-06T07:43:13;99380.59;;;30.13;100.00
26635;BME280;14490;54.208;37.686;2023-08-06T07:45:40;99366.47;;;30.14;100.00
26635;BME280;14490;54.208;37.686;2023-08-06T07:48:07;99364.34;;;30.21;100.00
26635;BME280;14490;54.208;37.686;2023-08-06T07:50:35;99369.41;;;30.24;100.00
26635;BME280;14490;54.208;37.686;2023-08-06T07:53:02;99363.84;;;30.24;100.00
26635;BME280;14490;54.208;37.686;2023-08-06T07:55:36;99355.00;;;30.27;100.00
26635;BME280;14490;54.208;37.686;2023-08-06T07:58:04;99366.69;;;30.29;100.00
26635;BME280;14490;54.208;37.686;2023-08-06T08:00:34;99339.94;;;30.23;100.00
26635;BME280;14490;54.208;37.686;2023-08-06T08:03:13;99304.50;;;30.09;100.00
26635;BME280;14490;54.208;37.686;2023-08-06T08:05:57;99337.31;;;30.33;100.00
26635;BME280;14490;54.208;37.686;2023-08-06T08:08:29;99316.03;;;30.22;100.00
26635;BME280;14490;54.208;37.686;2023-08-06T08:11:00;99358.75;;;30.55;100.00
26635;BME280;14490;54.208;37.686;2023-08-06T08:16:26;99323.06;;;30.47;100.00
26635;BME280;14490;54.208;37.686;2023-08-06T08:19:04;99309.69;;;30.44;100.00
26635;BME280;14490;54.208;37.686;2023-08-06T08:21:34;99302.19;;;30.44;100.00
26635;BME280;14490;54.208;37.686;2023-08-06T08:24:10;99350.66;;;30.75;100.00
26635;BME280;14490;54.208;37.686;2023-08-06T08:26:39;99341.53;;;30.79;100.00
26635;BME280;14490;54.208;37.686;2023-08-06T08:29:14;99319.75;;;30.71;100.00
26635;BME280;14490;54.208;37.686;2023-08-06T08:31:41;99338.69;;;30.96;100.00
26635;BME280;14490;54.208;37.686;2023-08-06T08:34:10;99338.19;;;30.99;100.00
26635;BME280;14490;54.208;37.686;2023-08-06T08:36:37;99339.06;;;31.05;100.00
26635;BME280;14490;54.208;37.686;2023-08-06T08:39:06;99337.81;;;31.17;100.00
26635;BME280;14490;54.208;37.686;2023-08-06T08:41:41;99308.28;;;31.11;100.00
26635;BME280;14490;54.208;37.686;2023-08-06T08:44:09;99339.66;;;31.33;100.00
26635;BME280;14490;54.208;37.686;2023-08-06T08:46:38;99257.41;;;30.89;100.00
26635;BME280;14490;54.208;37.686;2023-08-06T08:49:11;99299.16;;;31.16;100.00
26635;BME280;14490;54.208;37.686;2023-08-06T08:51:43;99343.34;;;31.44;100.00
26635;BME280;14490;54.208;37.686;2023-08-06T08:54:11;99337.53;;;31.46;100.00
26635;BME280;14490;54.208;37.686;2023-08-06T08:56:41;99342.59;;;31.49;100.00
26635;BME280;14490;54.208;37.686;2023-08-06T08:59:10;99338.38;;;31.46;100.00
26635;BME280;14490;54.208;37.686;2023-08-06T09:01:38;99329.66;;;31.37;100.00
26635;BME280;14490;54.208;37.686;2023-08-06T09:04:07;99310.69;;;31.29;100.00
26635;BME280;14490;54.208;37.686;2023-08-06T09:06:37;99319.69;;;31.41;100.00
26635;BME280;14490;54.208;37.686;2023-08-06T09:09:09;99317.22;;;31.45;100.00
26635;BME280;14490;54.208;37.686;2023-08-06T09:11:40;99312.22;;;31.47;100.00
26635;BME280;14490;54.208;37.686;2023-08-06T09:14:15;99296.53;;;31.31;100.00
26635;BME280;14490;54.208;37.686;2023-08-06T09:16:43;99292.59;;;31.27;100.00
26635;BME280;14490;54.208;37.686;2023-08-06T09:19:11;99312.97;;;31.37;100.00
26635;BME280;14490;54.208;37.686;2023-08-06T09:21:41;99309.94;;;31.39;100.00
26635;BME280;14490;54.208;37.686;2023-08-06T09:24:09;99312.16;;;31.37;100.00
26635;BME280;14490;54.208;37.686;2023-08-06T09:26:37;99298.19;;;31.32;100.00
26635;BME280;14490;54.208;37.686;2023-08-06T09:29:08;99302.16;;;31.41;100.00
26635;BME280;14490;54.208;37.686;2023-08-06T09:31:40;99278.72;;;31.32;100.00
26635;BME280;14490;54.208;37.686;2023-08-06T09:34:11;99306.88;;;31.40;100.00
26635;BME280;14490;54.208;37.686;2023-08-06T09:36:42;99280.13;;;31.34;100.00
26635;BME280;14490;54.208;37.686;2023-08-06T09:39:13;99299.75;;;31.50;100.00
26635;BME280;14490;54.208;37.686;2023-08-06T09:41:45;99279.69;;;31.48;100.00
26635;BME280;14490;54.208;37.686;2023-08-06T09:44:17;99291.06;;;31.78;100.00
26635;BME280;14490;54.208;37.686;2023-08-06T09:46:47;99291.69;;;31.85;100.00
26635;BME280;14490;54.208;37.686;2023-08-06T09:49:19;99297.81;;;31.92;100.00
26635;BME280;14490;54.208;37.686;2023-08-06T09:51:47;99298.44;;;31.99;100.00
26635;BME280;14490;54.208;37.686;2023-08-06T09:54:16;99272.81;;;31.97;100.00
26635;BME280;14490;54.208;37.686;2023-08-06T09:56:44;99290.44;;;32.08;100.00
26635;BME280;14490;54.208;37.686;2023-08-06T09:59:12;99292.13;;;32.09;100.00
26635;BME280;14490;54.208;37.686;2023-08-06T10:01:43;99176.19;;;31.46;100.00
26635;BME280;14490;54.208;37.686;2023-08-06T10:04:12;99282.38;;;32.06;100.00
26635;BME280;14490;54.208;37.686;2023-08-06T10:06:43;99191.00;;;31.51;100.00
26635;BME280;14490;54.208;37.686;2023-08-06T10:09:13;99273.91;;;31.96;100.00
26635;BME280;14490;54.208;37.686;2023-08-06T10:11:44;99266.66;;;31.90;100.00
26635;BME280;14490;54.208;37.686;2023-08-06T10:14:21;99263.31;;;31.88;100.00
26635;BME280;14490;54.208;37.686;2023-08-06T10:16:53;99260.84;;;31.97;100.00
26635;BME280;14490;54.208;37.686;2023-08-06T10:19:21;99256.72;;;32.04;100.00
26635;BME280;14490;54.208;37.686;2023-08-06T10:22:07;99261.50;;;32.09;100.00
26635;BME280;14490;54.208;37.686;2023-08-06T10:24:46;99254.00;;;32.14;100.00
26635;BME280;14490;54.208;37.686;2023-08-06T10:27:14;99252.38;;;32.28;100.00
26635;BME280;14490;54.208;37.686;2023-08-06T10:29:46;99245.75;;;32.39;100.00
26635;BME280;14490;54.208;37.686;2023-08-06T10:32:15;99245.25;;;32.53;100.00
26635;BME280;14490;54.208;37.686;2023-08-06T10:34:59;99249.50;;;32.65;100.00
26635;BME280;14490;54.208;37.686;2023-08-06T10:37:37;99255.38;;;32.79;100.00
26635;BME280;14490;54.208;37.686;2023-08-06T10:40:07;99245.66;;;32.91;100.00
26635;BME280;14490;54.208;37.686;2023-08-06T10:42:35;99230.88;;;32.96;100.00
26635;BME280;14490;54.208;37.686;2023-08-06T10:45:12;99229.75;;;33.02;100.00
26635;BME280;14490;54.208;37.686;2023-08-06T10:47:43;99231.72;;;33.07;100.00
26635;BME280;14490;54.208;37.686;2023-08-06T10:50:12;99239.84;;;33.23;100.00
26635;BME280;14490;54.208;37.686;2023-08-06T10:52:42;99232.03;;;33.20;100.00
26635;BME280;14490;54.208;37.686;2023-08-06T10:55:10;99237.06;;;33.23;100.00
26635;BME280;14490;54.208;37.686;2023-08-06T10:57:39;99235.66;;;33.26;100.00
26635;BME280;14490;54.208;37.686;2023-08-06T11:00:10;99222.00;;;33.24;100.00
26635;BME280;14490;54.208;37.686;2023-08-06T11:02:39;99227.84;;;33.38;100.00
26635;BME280;14490;54.208;37.686;2023-08-06T11:05:09;99230.94;;;33.46;100.00
26635;BME280;14490;54.208;37.686;2023-08-06T11:07:37;99219.75;;;33.46;100.00
26635;BME280;14490;54.208;37.686;2023-08-06T11:10:13;99211.41;;;33.31;100.00
26635;BME280;14490;54.208;37.686;2023-08-06T11:12:42;99226.19;;;33.27;100.00
26635;BME280;14490;54.208;37.686;2023-08-06T11:15:10;99224.78;;;33.29;100.00
26635;BME280;14490;54.208;37.686;2023-08-06T11:17:40;99217.53;;;33.38;100.00
26635;BME280;14490;54.208;37.686;2023-08-06T11:20:11;99218.88;;;33.56;100.00
26635;BME280;14490;54.208;37.686;2023-08-06T11:22:43;99216.66;;;33.73;100.00
26635;BME280;14490;54.208;37.686;2023-08-06T11:25:10;99216.09;;;33.81;100.00
26635;BME280;14490;54.208;37.686;2023-08-06T11:27:38;99204.06;;;33.81;100.00
26635;BME280;14490;54.208;37.686;2023-08-06T11:30:06;99196.81;;;33.75;100.00
26635;BME280;14490;54.208;37.686;2023-08-06T11:32:49;99212.44;;;33.81;100.00
26635;BME280;14490;54.208;37.686;2023-08-06T11:35:18;99208.88;;;33.70;100.00
26635;BME280;14490;54.208;37.686;2023-08-06T11:37:45;99202.97;;;33.57;100.00
26635;BME280;14490;54.208;37.686;2023-08-06T11:40:16;99177.06;;;33.36;100.00
26635;BME280;14490;54.208;37.686;2023-08-06T11:42:46;99198.53;;;33.50;100.00
26635;BME280;14490;54.208;37.686;2023-08-06T11:45:14;99178.44;;;33.48;100.00
26635;BME280;14490;54.208;37.686;2023-08-06T11:47:49;99186.53;;;33.60;100.00
26635;BME280;14490;54.208;37.686;2023-08-06T11:50:23;99171.19;;;33.52;100.00
26635;BME280;14490;54.208;37.686;2023-08-06T11:52:56;99184.03;;;33.59;100.00
26635;BME280;14490;54.208;37.686;2023-08-06T11:55:27;99172.84;;;33.59;100.00
26635;BME280;14490;54.208;37.686;2023-08-06T11:57:56;99187.13;;;33.62;100.00
26635;BME280;14490;54.208;37.686;2023-08-06T12:00:29;99170.06;;;33.64;100.00
26635;BME280;14490;54.208;37.686;2023-08-06T12:02:59;99167.00;;;33.55;100.00
26635;BME280;14490;54.208;37.686;2023-08-06T12:05:31;99177.88;;;33.51;100.00
26635;BME280;14490;54.208;37.686;2023-08-06T12:08:00;99153.34;;;33.33;100.00
26635;BME280;14490;54.208;37.686;2023-08-06T12:10:30;99172.31;;;33.36;100.00
26635;BME280;14490;54.208;37.686;2023-08-06T12:12:57;99105.97;;;32.83;100.00
26635;BME280;14490;54.208;37.686;2023-08-06T12:15:34;99165.13;;;33.10;100.00
26635;BME280;14490;54.208;37.686;2023-08-06T12:18:03;99174.81;;;33.03;100.00
26635;BME280;14490;54.208;37.686;2023-08-06T12:20:34;99168.44;;;32.92;100.00
26635;BME280;14490;54.208;37.686;2023-08-06T12:23:02;99168.97;;;32.84;100.00
26635;BME280;14490;54.208;37.686;2023-08-06T12:25:29;99170.06;;;32.78;100.00
26635;BME280;14490;54.208;37.686;2023-08-06T12:27:56;99174.53;;;32.69;100.00
26635;BME280;14490;54.208;37.686;2023-08-06T12:30:24;99163.63;;;32.62;100.00
26635;BME280;14490;54.208;37.686;2023-08-06T12:32:54;99162.25;;;32.60;100.00
26635;BME280;14490;54.208;37.686;2023-08-06T12:35:23;99161.16;;;32.61;100.00
26635;BME280;14490;54.208;37.686;2023-08-06T12:37:53;99153.34;;;32.63;100.00
26635;BME280;14490;54.208;37.686;2023-08-06T12:40:22;99153.38;;;32.68;100.00
26635;BME280;14490;54.208;37.686;2023-08-06T12:42:50;99140.53;;;32.62;100.00
26635;BME280;14490;54.208;37.686;2023-08-06T12:45:17;99149.44;;;32.64;100.00
26635;BME280;14490;54.208;37.686;2023-08-06T12:47:46;99141.09;;;32.59;100.00
26635;BME280;14490;54.208;37.686;2023-08-06T12:50:21;99122.91;;;32.51;100.00
26635;BME280;14490;54.208;37.686;2023-08-06T12:52:55;99142.47;;;32.61;100.00